createdAt,value
2023-04-02T00:00:12.686Z,21.20
2023-04-02T00:02:48.518Z,23.50
2023-04-02T00:05:16.702Z,24.40
2023-04-02T00:07:49.028Z,22.40
2023-04-02T00:10:33.682Z,24.00
2023-04-02T00:13:10.680Z,23.40
2023-04-02T00:15:39.508Z,23.60
2023-04-02T00:18:07.632Z,22.80
2023-04-02T00:20:41.015Z,22.70
2023-04-02T00:23:10.547Z,23.60
2023-04-02T00:25:49.649Z,28.10
2023-04-02T00:28:20.970Z,25.40
2023-04-02T00:30:56.941Z,27.00
2023-04-02T00:33:28.450Z,24.50
2023-04-02T00:35:56.609Z,26.50
2023-04-02T00:38:35.450Z,23.60
2023-04-02T00:41:05.222Z,24.40
2023-04-02T00:46:10.916Z,21.80
2023-04-02T00:48:56.728Z,23.40
2023-04-02T00:51:35.779Z,23.70
2023-04-02T00:54:06.929Z,22.70
2023-04-02T00:56:44.319Z,21.30
2023-04-02T00:59:31.353Z,21.40
2023-04-02T01:02:18.802Z,20.90
2023-04-02T01:05:11.494Z,24.30
2023-04-02T01:08:06.510Z,26.80
2023-04-02T01:10:50.299Z,27.60
2023-04-02T01:13:23.256Z,32.90
2023-04-02T01:16:14.799Z,34.60
2023-04-02T01:18:56.975Z,29.10
2023-04-02T01:21:42.807Z,30.20
2023-04-02T01:24:14.787Z,45.70
2023-04-02T01:26:57.694Z,33.60
2023-04-02T01:29:48.983Z,29.90
2023-04-02T01:32:20.755Z,25.30
2023-04-02T01:34:49.642Z,24.40
2023-04-02T01:37:49.852Z,25.10
2023-04-02T01:40:21.589Z,26.60
2023-04-02T01:43:10.068Z,25.90
2023-04-02T01:45:37.204Z,26.70
2023-04-02T01:48:20.011Z,26.90
2023-04-02T01:50:50.300Z,24.20
2023-04-02T01:53:20.719Z,24.70
2023-04-02T01:55:52.761Z,22.10
2023-04-02T01:58:26.542Z,22.20
2023-04-02T02:00:57.167Z,20.30
2023-04-02T02:03:24.279Z,19.90
2023-04-02T02:05:51.542Z,23.50
2023-04-02T02:08:31.626Z,22.00
2023-04-02T02:10:59.448Z,25.30
2023-04-02T02:13:26.186Z,20.70
2023-04-02T02:15:56.596Z,20.90
2023-04-02T02:18:23.947Z,21.10
2023-04-02T02:20:53.106Z,21.80
2023-04-02T02:23:21.764Z,23.70
2023-04-02T02:25:48.702Z,18.50
2023-04-02T02:28:24.352Z,20.30
2023-04-02T02:30:56.269Z,17.60
2023-04-02T02:33:26.983Z,19.10
2023-04-02T02:36:01.357Z,18.10
2023-04-02T02:38:34.502Z,18.80
2023-04-02T02:41:08.169Z,22.60
2023-04-02T02:43:39.322Z,19.50
2023-04-02T02:46:08.872Z,19.10
2023-04-02T02:48:39.572Z,18.70
2023-04-02T02:51:14.480Z,19.70
2023-04-02T02:53:53.529Z,20.50
2023-04-02T02:56:23.788Z,18.30
2023-04-02T02:58:53.632Z,16.60
2023-04-02T03:03:49.688Z,16.00
2023-04-02T03:06:20.991Z,18.10
2023-04-02T03:08:57.890Z,16.80
2023-04-02T03:11:35.282Z,19.80
2023-04-02T03:14:31.622Z,19.70
2023-04-02T03:17:11.202Z,21.20
2023-04-02T03:19:48.343Z,19.70
2023-04-02T03:22:23.748Z,20.00
2023-04-02T03:25:00.034Z,17.20
2023-04-02T03:27:37.207Z,16.90
2023-04-02T03:30:27.173Z,18.30
2023-04-02T03:33:00.656Z,19.00
2023-04-02T03:35:43.660Z,18.20
2023-04-02T03:38:31.052Z,18.60
2023-04-02T03:41:06.735Z,19.50
2023-04-02T03:43:50.181Z,18.60
2023-04-02T03:46:37.013Z,17.50
2023-04-02T03:49:12.765Z,22.00
2023-04-02T03:51:51.157Z,18.10
2023-04-02T03:54:18.378Z,17.50
2023-04-02T03:56:47.857Z,16.20
2023-04-02T03:59:35.062Z,15.90
2023-04-02T04:02:24.849Z,16.40
2023-04-02T04:04:54.662Z,16.10
2023-04-02T04:10:04.728Z,16.10
2023-04-02T04:12:43.783Z,18.10
2023-04-02T04:15:19.250Z,14.40
2023-04-02T04:17:55.382Z,14.80
2023-04-02T04:20:26.652Z,15.50
2023-04-02T04:22:58.150Z,14.00
2023-04-02T04:25:30.811Z,14.30
2023-04-02T04:28:06.163Z,15.50
2023-04-02T04:30:51.201Z,16.50
2023-04-02T04:33:29.255Z,18.10
2023-04-02T04:35:59.544Z,15.90
2023-04-02T04:38:33.128Z,17.40
2023-04-02T04:41:21.687Z,15.50
2023-04-02T04:43:48.305Z,14.30
2023-04-02T04:46:20.931Z,15.40
2023-04-02T04:48:52.795Z,14.60
2023-04-02T04:51:25.857Z,14.00
2023-04-02T04:53:55.513Z,16.70
2023-04-02T04:56:27.033Z,15.30
2023-04-02T04:58:59.708Z,15.60
2023-04-02T05:01:41.137Z,16.60
2023-04-02T05:04:24.942Z,16.20
2023-04-02T05:07:03.325Z,15.80
2023-04-02T05:09:36.735Z,15.70
2023-04-02T05:12:22.158Z,15.90
2023-04-02T05:14:54.994Z,15.80
2023-04-02T05:17:37.785Z,15.30
2023-04-02T05:20:28.443Z,15.30
2023-04-02T05:22:58.812Z,16.40
2023-04-02T05:25:29.026Z,15.80
2023-04-02T05:28:18.390Z,18.20
2023-04-02T05:30:58.253Z,18.00
2023-04-02T05:36:06.227Z,17.60
2023-04-02T05:38:36.848Z,16.50
2023-04-02T05:41:29.187Z,16.70
2023-04-02T05:44:22.047Z,16.30
2023-04-02T05:46:51.910Z,15.40
2023-04-02T05:52:01.094Z,17.30
2023-04-02T05:54:52.570Z,17.50
2023-04-02T05:57:39.546Z,17.30
2023-04-02T06:00:18.504Z,20.20
2023-04-02T06:02:54.870Z,17.30
2023-04-02T06:05:26.968Z,17.40
2023-04-02T06:08:03.678Z,20.10
2023-04-02T06:10:35.556Z,18.30
2023-04-02T06:13:09.142Z,17.20
2023-04-02T06:15:38.354Z,15.10
2023-04-02T06:18:05.234Z,17.90
2023-04-02T06:20:32.983Z,16.00
2023-04-02T06:23:19.586Z,17.60
2023-04-02T06:25:53.284Z,15.80
2023-04-02T06:28:28.553Z,17.50
2023-04-02T06:31:01.296Z,15.80
2023-04-02T06:33:28.196Z,15.50
2023-04-02T06:35:55.680Z,18.40
2023-04-02T06:38:29.799Z,15.00
2023-04-02T06:41:10.749Z,16.30
2023-04-02T06:43:50.113Z,16.10
2023-04-02T06:46:43.095Z,16.90
2023-04-02T06:49:19.528Z,15.70
2023-04-02T06:51:48.411Z,19.10
2023-04-02T06:54:17.226Z,16.60
2023-04-02T06:56:50.055Z,17.10
2023-04-02T06:59:17.889Z,18.00
2023-04-02T07:01:54.076Z,15.70
2023-04-02T07:04:22.298Z,16.90
2023-04-02T07:06:49.331Z,15.10
2023-04-02T07:09:17.213Z,15.30
2023-04-02T07:11:44.052Z,16.60
2023-04-02T07:14:16.534Z,13.40
2023-04-02T07:16:44.322Z,14.80
2023-04-02T07:19:20.719Z,14.40
2023-04-02T07:21:48.245Z,14.10
2023-04-02T07:24:15.365Z,15.10
2023-04-02T07:26:42.356Z,13.50
2023-04-02T07:29:14.981Z,14.90
2023-04-02T07:31:41.982Z,14.00
2023-04-02T07:34:10.497Z,17.50
2023-04-02T07:36:37.777Z,16.50
2023-04-02T07:39:04.740Z,14.10
2023-04-02T07:41:31.519Z,15.00
2023-04-02T07:43:58.548Z,14.50
2023-04-02T07:46:26.095Z,14.80
2023-04-02T07:48:53.255Z,14.20
2023-04-02T07:51:22.062Z,12.50
2023-04-02T07:53:51.009Z,12.70
2023-04-02T07:56:19.994Z,12.20
2023-04-02T07:58:47.364Z,11.80
2023-04-02T08:01:24.351Z,13.50
2023-04-02T08:03:54.281Z,11.60
2023-04-02T08:06:22.059Z,11.20
2023-04-02T08:08:49.118Z,11.90
2023-04-02T08:11:16.318Z,12.00
2023-04-02T08:13:43.311Z,10.20
2023-04-02T08:16:10.937Z,9.60
2023-04-02T08:18:38.459Z,9.90
2023-04-02T08:21:10.351Z,9.00
2023-04-02T08:23:37.844Z,8.30
2023-04-02T08:26:05.934Z,10.50
2023-04-02T08:28:32.613Z,11.50
2023-04-02T08:30:59.623Z,7.70
2023-04-02T08:33:27.140Z,8.00
2023-04-02T08:35:54.082Z,10.70
2023-04-02T08:38:22.585Z,7.70
2023-04-02T08:40:52.250Z,9.10
2023-04-02T08:43:40.995Z,8.60
2023-04-02T08:46:17.249Z,12.00
2023-04-02T08:48:49.264Z,10.30
2023-04-02T08:51:28.365Z,9.80
2023-04-02T08:54:00.510Z,12.50
2023-04-02T08:56:37.260Z,10.60
2023-04-02T08:59:24.996Z,10.10
2023-04-02T09:02:16.037Z,13.20
2023-04-02T09:04:43.467Z,8.40
2023-04-02T09:07:15.664Z,2.50
2023-04-02T09:09:42.768Z,2.40
2023-04-02T09:12:36.591Z,2.60
2023-04-02T09:15:29.746Z,2.60
2023-04-02T09:18:01.224Z,3.10
2023-04-02T09:20:29.432Z,1.90
2023-04-02T09:22:57.258Z,1.50
2023-04-02T09:25:28.016Z,1.50
2023-04-02T09:27:57.676Z,2.30
2023-04-02T09:30:29.729Z,1.60
2023-04-02T09:33:02.694Z,2.60
2023-04-02T09:35:32.647Z,2.00
2023-04-02T09:40:51.392Z,1.60
2023-04-02T09:43:21.660Z,3.20
2023-04-02T09:46:16.680Z,2.40
2023-04-02T09:49:01.170Z,1.40
2023-04-02T09:51:34.833Z,1.60
2023-04-02T09:54:04.724Z,3.10
2023-04-02T09:56:39.954Z,1.20
2023-04-02T09:59:12.482Z,1.70
2023-04-02T10:02:06.282Z,1.30
2023-04-02T10:04:48.145Z,4.10
2023-04-02T10:07:40.622Z,1.70
2023-04-02T10:10:19.429Z,1.50
2023-04-02T10:12:51.613Z,2.90
2023-04-02T10:15:25.835Z,2.90
2023-04-02T10:18:04.022Z,3.20
2023-04-02T10:20:41.791Z,3.10
2023-04-02T10:23:17.450Z,2.50
2023-04-02T10:25:55.153Z,1.50
2023-04-02T10:28:44.841Z,3.60
2023-04-02T10:31:29.998Z,4.80
2023-04-02T10:34:04.130Z,5.70
2023-04-02T10:36:48.299Z,4.20
2023-04-02T10:39:15.268Z,9.90
2023-04-02T10:41:53.623Z,10.90
2023-04-02T10:44:49.766Z,6.80
2023-04-02T10:47:28.878Z,6.80
2023-04-02T10:50:36.260Z,8.40
2023-04-02T10:53:09.734Z,10.00
2023-04-02T10:55:43.379Z,7.80
2023-04-02T10:58:26.908Z,4.50
2023-04-02T11:01:24.339Z,5.90
2023-04-02T11:04:19.051Z,4.00
2023-04-02T11:07:03.476Z,5.00
2023-04-02T11:09:43.649Z,7.60
2023-04-02T11:12:42.098Z,4.90
2023-04-02T11:15:19.205Z,4.30
2023-04-02T11:17:46.726Z,4.10
2023-04-02T11:20:43.307Z,3.00
2023-04-02T11:23:18.424Z,2.00
2023-04-02T11:25:46.741Z,2.60
2023-04-02T11:28:25.927Z,2.70
2023-04-02T11:30:53.630Z,4.40
2023-04-02T11:33:39.249Z,12.30
2023-04-02T11:36:44.901Z,4.30
2023-04-02T11:39:17.532Z,3.60
2023-04-02T11:42:03.940Z,3.60
2023-04-02T11:44:31.032Z,6.00
2023-04-02T11:47:18.896Z,9.90
2023-04-02T11:49:55.712Z,11.90
2023-04-02T11:52:26.305Z,17.20
2023-04-02T11:55:05.160Z,9.80
2023-04-02T11:57:50.891Z,10.20
2023-04-02T12:00:45.365Z,13.50
2023-04-02T12:03:30.212Z,19.80
2023-04-02T12:06:13.548Z,12.10
2023-04-02T12:08:57.213Z,13.20
2023-04-02T12:11:34.579Z,10.00
2023-04-02T12:14:03.158Z,5.40
2023-04-02T12:16:34.816Z,7.50
2023-04-02T12:19:01.633Z,11.20
2023-04-02T12:21:29.872Z,7.00
2023-04-02T12:23:59.592Z,7.90
2023-04-02T12:26:32.245Z,4.70
2023-04-02T12:29:27.103Z,5.30
2023-04-02T12:31:56.314Z,6.70
2023-04-02T12:34:25.895Z,7.00
2023-04-02T12:37:04.733Z,6.10
2023-04-02T12:39:33.767Z,8.40
2023-04-02T12:42:00.814Z,8.20
2023-04-02T12:44:30.541Z,6.50
2023-04-02T12:46:59.394Z,5.40
2023-04-02T12:49:39.626Z,7.50
2023-04-02T12:52:13.158Z,10.40
2023-04-02T12:54:53.769Z,8.30
2023-04-02T12:57:40.175Z,9.70
2023-04-02T13:00:25.217Z,11.20
2023-04-02T13:03:13.355Z,14.20
2023-04-02T13:05:44.775Z,12.00
2023-04-02T13:08:23.058Z,10.20
2023-04-02T13:10:56.915Z,11.20
2023-04-02T13:13:46.224Z,12.80
2023-04-02T13:16:12.951Z,8.10
2023-04-02T13:18:40.653Z,7.40
2023-04-02T13:23:51.875Z,8.20
2023-04-02T13:26:18.607Z,9.10
2023-04-02T13:29:01.402Z,11.00
2023-04-02T13:31:30.416Z,10.80
2023-04-02T13:33:57.346Z,11.40
2023-04-02T13:36:24.207Z,9.40
2023-04-02T13:38:51.327Z,8.50
2023-04-02T13:41:28.371Z,8.90
2023-04-02T13:43:57.659Z,9.60
2023-04-02T13:46:27.431Z,10.10
2023-04-02T13:51:34.438Z,12.10
2023-04-02T13:54:01.425Z,14.90
2023-04-02T13:56:29.096Z,15.30
2023-04-02T13:58:55.980Z,15.20
2023-04-02T14:01:24.765Z,16.40
2023-04-02T14:03:53.300Z,12.40
2023-04-02T14:06:37.849Z,13.70
2023-04-02T14:09:18.664Z,12.80
2023-04-02T14:11:56.455Z,13.60
2023-04-02T14:14:37.281Z,14.10
2023-04-02T14:17:21.037Z,12.70
2023-04-02T14:20:00.841Z,11.00
2023-04-02T14:25:37.954Z,9.90
2023-04-02T14:28:13.876Z,8.70
2023-04-02T14:31:08.489Z,9.30
2023-04-02T14:34:03.366Z,9.30
2023-04-02T14:36:50.010Z,11.00
2023-04-02T14:39:32.980Z,10.70
2023-04-02T14:42:16.966Z,11.80
2023-04-02T14:44:53.462Z,11.70
2023-04-02T14:47:30.035Z,10.00
2023-04-02T14:50:11.849Z,8.80
2023-04-02T14:52:42.543Z,7.20
2023-04-02T14:55:21.849Z,8.40
2023-04-02T14:57:54.047Z,7.70
2023-04-02T15:00:45.025Z,5.30
2023-04-02T15:03:36.662Z,4.80
2023-04-02T15:06:09.798Z,4.60
2023-04-02T15:08:52.254Z,4.70
2023-04-02T15:11:31.591Z,4.40
2023-04-02T15:14:13.156Z,5.00
2023-04-02T15:16:40.265Z,4.50
2023-04-02T15:19:13.468Z,4.00
2023-04-02T15:22:03.958Z,3.50
2023-04-02T15:24:43.461Z,3.00
2023-04-02T15:27:38.427Z,4.40
2023-04-02T15:30:15.220Z,2.90
2023-04-02T15:32:43.801Z,3.50
2023-04-02T15:35:18.725Z,3.50
2023-04-02T15:38:12.120Z,3.20
2023-04-02T15:40:59.816Z,3.70
2023-04-02T15:43:39.190Z,2.90
2023-04-02T15:46:32.601Z,4.30
2023-04-02T15:49:03.303Z,5.10
2023-04-02T15:51:57.980Z,4.60
2023-04-02T15:54:41.436Z,4.40
2023-04-02T15:57:25.195Z,5.90
2023-04-02T16:00:30.681Z,4.10
2023-04-02T16:03:06.358Z,4.10
2023-04-02T16:06:05.931Z,4.10
2023-04-02T16:08:35.654Z,5.70
2023-04-02T16:11:02.457Z,4.30
2023-04-02T16:13:36.721Z,3.70
2023-04-02T16:16:05.885Z,5.00
2023-04-02T16:18:56.969Z,5.50
2023-04-02T16:21:32.481Z,5.80
2023-04-02T16:23:59.396Z,6.60
2023-04-02T16:26:34.901Z,6.50
2023-04-02T16:29:25.680Z,4.40
2023-04-02T16:32:11.493Z,7.80
2023-04-02T16:35:15.232Z,7.90
2023-04-02T16:37:53.279Z,8.30
2023-04-02T16:40:34.110Z,6.50
2023-04-02T16:43:10.629Z,7.60
2023-04-02T16:46:13.402Z,5.80
2023-04-02T16:48:57.593Z,6.40
2023-04-02T16:51:52.245Z,5.90
2023-04-02T16:55:02.335Z,8.50
2023-04-02T16:57:53.239Z,9.10
2023-04-02T17:00:32.520Z,9.30
2023-04-02T17:03:27.282Z,8.10
2023-04-02T17:06:08.369Z,10.10
2023-04-02T17:09:09.493Z,11.70
2023-04-02T17:11:52.966Z,13.00
2023-04-02T17:15:26.697Z,12.90
2023-04-02T17:17:58.623Z,9.40
2023-04-02T17:20:26.697Z,10.50
2023-04-02T17:22:54.516Z,9.30
2023-04-02T17:25:34.304Z,8.80
2023-04-02T17:28:03.173Z,12.10
2023-04-02T17:30:47.335Z,9.30
2023-04-02T17:33:16.400Z,12.10
2023-04-02T17:35:46.096Z,10.30
2023-04-02T17:38:20.254Z,11.30
2023-04-02T17:41:08.659Z,10.20
2023-04-02T17:43:58.816Z,9.40
2023-04-02T17:46:45.920Z,8.80
2023-04-02T17:49:26.930Z,7.00
2023-04-02T17:52:07.668Z,7.70
2023-04-02T17:54:52.077Z,7.40
2023-04-02T17:58:01.783Z,6.70
2023-04-02T18:00:51.420Z,6.50
2023-04-02T18:03:36.304Z,5.90
2023-04-02T18:06:16.365Z,8.30
2023-04-02T18:08:57.193Z,6.20
2023-04-02T18:11:37.873Z,6.10
2023-04-02T18:14:37.480Z,6.40
2023-04-02T18:17:30.322Z,7.90
2023-04-02T18:20:16.779Z,7.20
2023-04-02T18:22:57.873Z,6.50
2023-04-02T18:25:43.257Z,7.50
2023-04-02T18:28:23.966Z,6.70
2023-04-02T18:31:01.436Z,7.00
2023-04-02T18:33:29.282Z,7.90
2023-04-02T18:35:56.005Z,6.90
2023-04-02T18:38:43.113Z,6.20
2023-04-02T18:41:51.022Z,6.70
2023-04-02T18:44:38.877Z,5.10
2023-04-02T18:47:31.377Z,5.90
2023-04-02T18:50:15.947Z,5.80
2023-04-02T18:52:43.313Z,7.70
2023-04-02T18:55:31.730Z,7.40
2023-04-02T18:58:06.325Z,5.20
2023-04-02T19:00:38.466Z,6.30
2023-04-02T19:03:21.618Z,5.50
2023-04-02T19:06:01.227Z,5.30
2023-04-02T19:08:43.941Z,7.60
2023-04-02T19:11:28.780Z,6.50
2023-04-02T19:14:00.399Z,5.70
2023-04-02T19:16:55.152Z,8.10
2023-04-02T19:19:25.710Z,9.10
2023-04-02T19:22:24.772Z,9.00
2023-04-02T19:25:05.593Z,6.40
2023-04-02T19:27:55.921Z,6.70
2023-04-02T19:30:45.736Z,6.40
2023-04-02T19:35:57.071Z,6.70
2023-04-02T19:38:46.611Z,7.80
2023-04-02T19:41:48.714Z,6.10
2023-04-02T19:44:17.235Z,8.70
2023-04-02T19:46:45.633Z,8.70
2023-04-02T19:49:29.551Z,9.60
2023-04-02T19:51:57.129Z,10.70
2023-04-02T19:54:24.107Z,17.90
2023-04-02T19:56:51.287Z,18.30
2023-04-02T19:59:19.022Z,17.90
2023-04-02T20:01:47.066Z,22.70
2023-04-02T20:04:14.593Z,16.80
2023-04-02T20:06:41.993Z,17.40
2023-04-02T20:09:09.804Z,14.20
2023-04-02T20:11:38.275Z,12.30
2023-04-02T20:14:06.237Z,12.60
2023-04-02T20:16:34.618Z,12.60
2023-04-02T20:19:01.896Z,14.10
2023-04-02T20:21:29.663Z,13.60
2023-04-02T20:23:56.642Z,13.60
2023-04-02T20:26:23.598Z,11.50
2023-04-02T20:28:50.607Z,10.40
2023-04-02T20:31:18.911Z,8.60
2023-04-02T20:33:46.362Z,6.80
2023-04-02T20:36:17.822Z,8.60
2023-04-02T20:38:45.983Z,8.40
2023-04-02T20:41:13.217Z,8.80
2023-04-02T20:43:41.062Z,8.20
2023-04-02T20:46:10.832Z,9.10
2023-04-02T20:48:39.435Z,7.30
2023-04-02T20:51:08.992Z,4.70
2023-04-02T20:53:38.036Z,4.60
2023-04-02T20:56:14.094Z,4.30
2023-04-02T20:58:41.870Z,3.30
2023-04-02T21:01:20.865Z,3.80
2023-04-02T21:03:48.368Z,4.20
2023-04-02T21:06:21.513Z,4.10
2023-04-02T21:08:49.482Z,6.40
2023-04-02T21:11:17.090Z,3.60
2023-04-02T21:13:44.445Z,3.70
2023-04-02T21:16:23.119Z,5.40
2023-04-02T21:18:52.894Z,4.90
2023-04-02T21:21:21.600Z,4.60
2023-04-02T21:23:53.312Z,5.30
2023-04-02T21:26:20.772Z,5.90
2023-04-02T21:28:47.490Z,6.70
2023-04-02T21:31:17.900Z,4.90
2023-04-02T21:33:47.922Z,4.10
2023-04-02T21:36:16.169Z,3.70
2023-04-02T21:38:54.033Z,5.20
2023-04-02T21:41:26.684Z,6.20
2023-04-02T21:43:54.808Z,7.70
2023-04-02T21:46:24.355Z,6.30
2023-04-02T21:48:52.745Z,7.10
2023-04-02T21:51:23.008Z,5.50
2023-04-02T21:53:50.789Z,4.50
2023-04-02T21:56:23.656Z,4.90
2023-04-02T21:58:51.409Z,5.10
2023-04-02T22:01:27.314Z,5.50
2023-04-02T22:03:59.281Z,5.50
2023-04-02T22:06:28.862Z,5.40
2023-04-02T22:09:01.447Z,5.20
2023-04-02T22:11:31.752Z,4.70
2023-04-02T22:13:59.808Z,3.70
2023-04-02T22:16:29.046Z,4.30
2023-04-02T22:18:58.930Z,5.00
2023-04-02T22:23:53.655Z,3.70
2023-04-02T22:26:23.248Z,4.50
2023-04-02T22:28:52.903Z,5.50
2023-04-02T22:31:23.087Z,5.20
2023-04-02T22:33:51.071Z,7.30
2023-04-02T22:36:19.049Z,6.40
2023-04-02T22:38:46.339Z,5.30
2023-04-02T22:41:15.708Z,5.60
2023-04-02T22:43:45.897Z,5.10
2023-04-02T22:46:15.961Z,6.50
2023-04-02T22:48:44.314Z,5.70
2023-04-02T22:51:12.968Z,5.60
2023-04-02T22:53:40.924Z,6.60
2023-04-02T22:56:10.500Z,6.00
2023-04-02T22:58:38.381Z,5.80
2023-04-02T23:01:16.912Z,5.40
2023-04-02T23:03:44.110Z,6.90
2023-04-02T23:06:15.654Z,6.70
2023-04-02T23:08:43.121Z,6.20
2023-04-02T23:11:12.046Z,6.80
2023-04-02T23:13:39.727Z,7.40
2023-04-02T23:16:11.024Z,5.50
2023-04-02T23:18:40.516Z,5.20
2023-04-02T23:21:08.117Z,6.40
2023-04-02T23:23:36.022Z,6.80
2023-04-02T23:26:08.640Z,5.50
2023-04-02T23:28:36.997Z,6.80
2023-04-02T23:31:05.440Z,5.70
2023-04-02T23:33:32.397Z,6.40
2023-04-02T23:35:59.659Z,6.30
2023-04-02T23:38:27.491Z,6.10
2023-04-02T23:40:54.196Z,5.30
2023-04-02T23:43:21.265Z,6.10
2023-04-02T23:45:51.283Z,5.70
2023-04-02T23:48:18.064Z,4.80
2023-04-02T23:50:45.905Z,5.50
2023-04-02T23:53:13.468Z,7.40
2023-04-02T23:55:40.638Z,7.40
2023-04-02T23:58:07.563Z,8.50
